地図

経路データ

SID SEASON NUMBER BASIN SUBBASIN NAME ISO_TIME NATURE LAT LON WMO_WIND WMO_PRES WMO_AGENCY TRACK_TYPE DIST2LAND LANDFALL IFLAG USA_AGENCY USA_ATCF_ID USA_LAT USA_LON USA_RECORD USA_STATUS USA_WIND USA_PRES USA_SSHS USA_R34_NE USA_R34_SE USA_R34_SW USA_R34_NW USA_R50_NE USA_R50_SE USA_R50_SW USA_R50_NW USA_R64_NE USA_R64_SE USA_R64_SW USA_R64_NW USA_POCI USA_ROCI USA_RMW USA_EYE TOKYO_LAT TOKYO_LON TOKYO_GRADE TOKYO_WIND TOKYO_PRES TOKYO_R50_DIR TOKYO_R50_LONG TOKYO_R50_SHORT TOKYO_R30_DIR TOKYO_R30_LONG TOKYO_R30_SHORT TOKYO_LAND CMA_LAT CMA_LON CMA_CAT CMA_WIND CMA_PRES HKO_LAT HKO_LON HKO_CAT HKO_WIND HKO_PRES NEWDELHI_LAT NEWDELHI_LON NEWDELHI_GRADE NEWDELHI_WIND NEWDELHI_PRES NEWDELHI_CI NEWDELHI_DP NEWDELHI_POCI REUNION_LAT REUNION_LON REUNION_TYPE REUNION_WIND REUNION_PRES REUNION_TNUM REUNION_CI REUNION_RMW REUNION_R34_NE REUNION_R34_SE REUNION_R34_SW REUNION_R34_NW REUNION_R50_NE REUNION_R50_SE REUNION_R50_SW REUNION_R50_NW REUNION_R64_NE REUNION_R64_SE REUNION_R64_SW REUNION_R64_NW BOM_LAT BOM_LON BOM_TYPE BOM_WIND BOM_PRES BOM_TNUM BOM_CI BOM_RMW BOM_R34_NE BOM_R34_SE BOM_R34_SW BOM_R34_NW BOM_R50_NE BOM_R50_SE BOM_R50_SW BOM_R50_NW BOM_R64_NE BOM_R64_SE BOM_R64_SW BOM_R64_NW BOM_ROCI BOM_POCI BOM_EYE BOM_POS_METHOD BOM_PRES_METHOD NADI_LAT NADI_LON NADI_CAT NADI_WIND NADI_PRES WELLINGTON_LAT WELLINGTON_LON WELLINGTON_WIND WELLINGTON_PRES DS824_LAT DS824_LON DS824_STAGE DS824_WIND DS824_PRES TD9636_LAT TD9636_LON TD9636_STAGE TD9636_WIND TD9636_PRES TD9635_LAT TD9635_LON TD9635_WIND TD9635_PRES TD9635_ROCI NEUMANN_LAT NEUMANN_LON NEUMANN_CLASS NEUMANN_WIND NEUMANN_PRES MLC_LAT MLC_LON MLC_CLASS MLC_WIND MLC_PRES USA_GUST BOM_GUST BOM_GUST_PER REUNION_GUST REUNION_GUST_PER USA_SEAHGT USA_SEARAD_NE USA_SEARAD_SE USA_SEARAD_SW USA_SEARAD_NW STORM_SPEED STORM_DIR
1913003S21121 1913 2 SI WA NOT_NAMED 1913-01-02 12:00:00 NR -20.9000 120.700 main 0 0 __________O___ -1 -20.9000 120.700 7 4 242
1913003S21121 1913 2 SI WA NOT_NAMED 1913-01-02 15:00:00 NR -21.0010 120.503 main 0 0 __________P___ -1 -21.0010 120.503 7 5 243
1913003S21121 1913 2 SI WA NOT_NAMED 1913-01-02 18:00:00 NR -21.1117 120.264 main 0 0 __________P___ -1 -21.1117 120.264 7 6 245
1913003S21121 1913 2 SI WA NOT_NAMED 1913-01-02 21:00:00 NR -21.2416 119.944 main 0 0 __________P___ -1 -21.2416 119.944 7 8 248
1913003S21121 1913 2 SI WA NOT_NAMED 1913-01-03 00:00:00 NR -21.4000 119.500 main 0 0 __________O___ -1 -21.4000 119.500 7 10 250
1913003S21121 1913 2 SI WA NOT_NAMED 1913-01-03 03:00:00 NR -21.5910 118.904 main 0 0 __________P___ -1 -21.5910 118.904 7 13 252
1913003S21121 1913 2 SI WA NOT_NAMED 1913-01-03 06:00:00 NR -21.8002 118.181 main 0 0 __________P___ -1 -21.8002 118.181 7 15 254
1913003S21121 1913 2 SI WA NOT_NAMED 1913-01-03 09:00:00 NR -22.0092 117.367 main 0 0 __________P___ -1 -22.0092 117.367 7 16 256
1913003S21121 1913 2 SI WA NOT_NAMED 1913-01-03 12:00:00 NR -22.2000 116.500 main 0 0 __________O___ -1 -22.2000 116.500 7 18 260
1913003S21121 1913 2 SI WA NOT_NAMED 1913-01-03 15:00:00 NR -22.3182 115.453 main 0 0 __________P___ -1 -22.3182 115.453 7 20 264
1913003S21121 1913 2 SI WA NOT_NAMED 1913-01-03 18:00:00 NR -22.4182 114.393 main 0 0 __________P___ -1 -22.4182 114.393 7 18 263
1913003S21121 1913 2 SI WA NOT_NAMED 1913-01-03 21:00:00 NR -22.5333 113.488 main 15 15 __________P___ -1 -22.5333 113.488 7 14 258
1913003S21121 1913 2 SI WA NOT_NAMED 1913-01-04 00:00:00 NR -22.7000 112.900 main 72 72 __________O___ -1 -22.7000 112.900 7 8 234
1913003S21121 1913 2 SI WA NOT_NAMED 1913-01-04 03:00:00 NR -22.9808 112.811 main 93 81 __________P___ -1 -22.9808 112.811 7 6 168
1913003S21121 1913 2 SI WA NOT_NAMED 1913-01-04 06:00:00 NR -23.3172 113.050 main 81 15 __________P___ -1 -23.3172 113.050 7 9 138
1913003S21121 1913 2 SI WA NOT_NAMED 1913-01-04 09:00:00 NR -23.6700 113.489 main 15 0 __________P___ -1 -23.6700 113.489 7 11 128
1913003S21121 1913 2 SI WA NOT_NAMED 1913-01-04 12:00:00 NR -24.0000 114.000 main 0 0 __________O___ -1 -24.0000 114.000 7 11 124
1913003S21121 1913 2 SI WA NOT_NAMED 1913-01-04 15:00:00 NR -24.2782 114.476 main 0 0 __________P___ -1 -24.2782 114.476 7 10 122
1913003S21121 1913 2 SI WA NOT_NAMED 1913-01-04 18:00:00 NR -24.5110 114.909 main 0 0 __________P___ -1 -24.5110 114.909 7 9 120
1913003S21121 1913 2 SI WA NOT_NAMED 1913-01-04 21:00:00 NR -24.7133 115.311 main 0 0 __________P___ -1 -24.7133 115.311 7 8 118
1913003S21121 1913 2 SI WA NOT_NAMED 1913-01-05 00:00:00 NR -24.9000 115.700 main 0 __________O___ -1 -24.9000 115.700 7 8 118

IBTrACS Databaseについて

本データベースは、米国NOAAが公開する1842年以降の世界の熱帯低気圧のベストトラックデータアーカイブInternational Best Track Archive for Climate Stewardship (IBTrACS)を、ウェブで閲覧しやすい形式に変換したものです。

最終更新日:2021-12-08